Time;durP1;ratioP1;P1;durP2;ratioP2;P2;SDS_P1;SDS_P2;PMS_P1;PMS_P2;Temp;Humidity;BMP_temperature;BMP_pressure;BME280_temperature;BME280_humidity;BME280_pressure;Samples;Min_cycle;Max_cycle;Signal;HPM_P1;HPM_P2
2023/03/13 00:01:31;;;;;;;27.98;6.30;;;;;;;;;;4934522;29;20772;-81
2023/03/13 00:03:57;;;;;;;33.58;7.07;;;;;;;;;;4916440;29;20423;-81
2023/03/13 00:06:33;;;;;;;32.97;6.80;;;;;;;;;;4917659;29;20443;-82
2023/03/13 00:09:00;;;;;;;30.87;6.83;;;;;;;;;;4933794;29;20490;-82
2023/03/13 00:11:30;;;;;;;29.47;6.87;;;;;;;;;;4901731;29;20438;-82
2023/03/13 00:14:06;;;;;;;37.50;7.75;;;;;;;;;;4919223;29;20432;-82
2023/03/13 00:16:41;;;;;;;35.25;7.95;;;;;;;;;;4913472;29;20472;-81
2023/03/13 00:19:08;;;;;;;39.03;8.20;;;;;;;;;;4904587;29;20983;-81
2023/03/13 00:21:40;;;;;;;29.20;6.82;;;;;;;;;;4918897;29;20538;-81
2023/03/13 00:24:18;;;;;;;29.70;7.23;;;;;;;;;;4914326;29;20432;-81
2023/03/13 00:27:02;;;;;;;36.30;7.50;;;;;;;;;;4902426;29;20519;-80
2023/03/13 00:29:29;;;;;;;37.55;8.15;;;;;;;;;;4916259;29;20443;-80
2023/03/13 00:32:23;;;;;;;33.95;7.95;;;;;;;;;;4911877;29;20443;-80
2023/03/13 00:34:55;;;;;;;35.08;7.97;;;;;;;;;;4915046;29;20423;-80
2023/03/13 00:37:30;;;;;;;33.03;7.90;;;;;;;;;;4914839;29;20433;-80
2023/03/13 00:40:09;;;;;;;30.95;7.90;;;;;;;;;;4906598;29;20853;-81
2023/03/13 00:45:27;;;;;;;34.63;8.45;;;;;;;;;;4886288;29;20428;-80
2023/03/13 00:47:53;;;;;;;29.42;7.10;;;;;;;;;;4911764;29;20450;-80
2023/03/13 00:50:51;;;;;;;27.75;7.03;;;;;;;;;;4933548;29;20936;-80
2023/03/13 00:53:35;;;;;;;29.63;7.30;;;;;;;;;;4926900;29;20433;-80
2023/03/13 00:56:09;;;;;;;28.48;7.68;;;;;;;;;;4936414;29;20772;-80
2023/03/13 00:58:42;;;;;;;35.08;7.93;;;;;;;;;;4918626;29;20716;-80
2023/03/13 01:01:52;;;;;;;31.38;7.60;;;;;;;;;;4915298;29;20427;-80
2023/03/13 01:04:20;;;;;;;33.17;8.07;;;;;;;;;;4929256;29;20533;-80
2023/03/13 01:06:55;;;;;;;35.08;8.23;;;;;;;;;;4935808;29;20754;-81
2023/03/13 01:09:27;;;;;;;32.13;7.53;;;;;;;;;;4919620;29;20462;-81
2023/03/13 01:12:02;;;;;;;34.83;8.23;;;;;;;;;;4913651;29;20476;-81
2023/03/13 01:14:40;;;;;;;35.00;8.57;;;;;;;;;;4933591;29;20463;-81
2023/03/13 01:17:11;;;;;;;29.95;7.93;;;;;;;;;;4920630;29;20423;-82
2023/03/13 01:19:40;;;;;;;27.52;7.75;;;;;;;;;;4916017;29;20844;-81
2023/03/13 01:22:10;;;;;;;30.67;7.70;;;;;;;;;;4916368;29;20824;-81
2023/03/13 01:24:43;;;;;;;33.17;7.43;;;;;;;;;;4919380;29;20427;-81
2023/03/13 01:27:29;;;;;;;27.23;6.93;;;;;;;;;;4922822;29;20498;-81
2023/03/13 01:29:59;;;;;;;29.02;7.45;;;;;;;;;;4919422;29;20514;-81
2023/03/13 01:32:36;;;;;;;30.38;7.47;;;;;;;;;;4932185;29;21015;-82
2023/03/13 01:35:14;;;;;;;31.00;7.45;;;;;;;;;;4923327;29;20431;-82
2023/03/13 01:37:41;;;;;;;33.33;7.57;;;;;;;;;;4935378;29;20953;-82
2023/03/13 01:40:07;;;;;;;29.35;7.80;;;;;;;;;;4916445;29;20881;-82
2023/03/13 01:42:51;;;;;;;29.50;7.35;;;;;;;;;;4908501;29;20821;-81
2023/03/13 01:45:39;;;;;;;32.40;7.30;;;;;;;;;;4931551;29;20435;-81
2023/03/13 01:48:05;;;;;;;30.35;7.00;;;;;;;;;;4934823;29;20431;-81
2023/03/13 01:50:33;;;;;;;32.17;8.17;;;;;;;;;;4918281;29;20522;-80
2023/03/13 01:53:12;;;;;;;31.70;8.18;;;;;;;;;;4930749;29;20443;-81
2023/03/13 01:55:41;;;;;;;28.45;6.30;;;;;;;;;;4935122;29;20411;-81
2023/03/13 01:58:10;;;;;;;28.15;6.70;;;;;;;;;;4919221;29;20907;-81
2023/03/13 02:00:46;;;;;;;28.65;7.05;;;;;;;;;;4920664;29;20419;-80
2023/03/13 02:03:17;;;;;;;24.85;6.68;;;;;;;;;;4918443;29;20431;-81
2023/03/13 02:05:44;;;;;;;31.48;8.05;;;;;;;;;;4933016;29;20522;-82
2023/03/13 02:08:10;;;;;;;26.67;7.43;;;;;;;;;;4918751;29;20455;-83
2023/03/13 02:10:41;;;;;;;29.17;9.70;;;;;;;;;;4931912;29;20765;-83
2023/03/13 02:13:13;;;;;;;32.63;7.88;;;;;;;;;;4916984;29;20423;-83
2023/03/13 02:15:46;;;;;;;28.87;8.37;;;;;;;;;;4901748;29;20441;-83
2023/03/13 02:18:13;;;;;;;32.33;8.00;;;;;;;;;;4930448;29;20439;-82
2023/03/13 02:20:39;;;;;;;28.33;8.23;;;;;;;;;;4919225;29;20422;-82
2023/03/13 02:23:06;;;;;;;26.70;8.03;;;;;;;;;;4915037;29;20479;-83
2023/03/13 02:25:35;;;;;;;27.25;8.02;;;;;;;;;;4915112;29;20433;-82
2023/03/13 02:28:04;;;;;;;30.73;10.32;;;;;;;;;;4909153;29;20430;-82
2023/03/13 02:30:34;;;;;;;26.88;7.20;;;;;;;;;;4924397;29;20995;-83
2023/03/13 02:33:01;;;;;;;27.48;7.68;;;;;;;;;;4901953;29;20432;-82
2023/03/13 02:35:31;;;;;;;28.27;8.35;;;;;;;;;;4932976;29;20431;-82
2023/03/13 02:37:59;;;;;;;25.42;7.28;;;;;;;;;;4896205;29;20533;-82
2023/03/13 02:40:29;;;;;;;25.00;8.35;;;;;;;;;;4932706;29;20439;-83
2023/03/13 02:43:00;;;;;;;22.23;7.65;;;;;;;;;;4931826;29;20423;-82
2023/03/13 02:45:26;;;;;;;16.63;6.70;;;;;;;;;;4929088;29;20435;-82
2023/03/13 02:47:52;;;;;;;22.27;8.30;;;;;;;;;;4917652;29;20412;-81
2023/03/13 02:50:21;;;;;;;17.30;6.97;;;;;;;;;;4895574;29;20437;-82
2023/03/13 02:52:53;;;;;;;17.02;6.53;;;;;;;;;;4934396;29;20416;-82
2023/03/13 02:55:24;;;;;;;19.10;6.95;;;;;;;;;;4917347;29;20423;-81
2023/03/13 02:57:50;;;;;;;15.05;6.40;;;;;;;;;;4918406;29;20431;-82
2023/03/13 03:00:17;;;;;;;15.63;6.30;;;;;;;;;;4916428;29;20423;-82
2023/03/13 03:02:46;;;;;;;15.63;6.43;;;;;;;;;;4904077;29;20408;-82
2023/03/13 03:05:12;;;;;;;13.73;5.97;;;;;;;;;;4912452;29;20444;-82
2023/03/13 03:07:38;;;;;;;14.25;6.05;;;;;;;;;;4927112;29;20432;-81
2023/03/13 03:10:05;;;;;;;16.90;6.07;;;;;;;;;;4924413;29;20523;-82
2023/03/13 03:12:31;;;;;;;14.45;6.15;;;;;;;;;;4913900;29;20430;-82
2023/03/13 03:14:57;;;;;;;14.13;5.60;;;;;;;;;;4916420;29;20429;-82
2023/03/13 03:17:23;;;;;;;11.30;5.65;;;;;;;;;;4929938;29;20435;-81
2023/03/13 03:19:50;;;;;;;12.68;6.25;;;;;;;;;;4897752;29;20970;-81
2023/03/13 03:22:16;;;;;;;13.15;5.63;;;;;;;;;;4897759;29;20433;-82
2023/03/13 03:24:48;;;;;;;12.00;5.45;;;;;;;;;;4922743;29;20423;-82
2023/03/13 03:27:14;;;;;;;14.40;6.28;;;;;;;;;;4912447;29;20432;-81
2023/03/13 03:29:40;;;;;;;10.65;5.68;;;;;;;;;;4900446;29;20436;-81
2023/03/13 03:32:07;;;;;;;16.42;6.25;;;;;;;;;;4931511;29;20435;-82
2023/03/13 03:34:33;;;;;;;13.07;6.10;;;;;;;;;;4932597;29;20427;-82
2023/03/13 03:36:59;;;;;;;12.90;6.32;;;;;;;;;;4923023;29;20952;-81
2023/03/13 03:39:25;;;;;;;11.67;5.87;;;;;;;;;;4914059;29;20467;-81
2023/03/13 03:41:51;;;;;;;12.30;5.85;;;;;;;;;;4917649;29;20448;-81
2023/03/13 03:44:17;;;;;;;10.27;5.55;;;;;;;;;;4931087;29;20774;-81
2023/03/13 03:46:43;;;;;;;10.57;5.72;;;;;;;;;;4894381;29;20465;-81
2023/03/13 03:49:12;;;;;;;8.73;5.40;;;;;;;;;;4918317;29;20443;-80
2023/03/13 03:51:38;;;;;;;13.30;6.10;;;;;;;;;;4932400;29;20439;-81
2023/03/13 03:54:04;;;;;;;9.23;5.63;;;;;;;;;;4917298;29;20437;-81
2023/03/13 03:56:33;;;;;;;7.82;4.88;;;;;;;;;;4897468;29;20425;-80
2023/03/13 03:58:59;;;;;;;9.20;5.88;;;;;;;;;;4899000;29;20448;-80
2023/03/13 04:01:26;;;;;;;10.23;6.05;;;;;;;;;;4890765;29;20439;-82
2023/03/13 04:03:52;;;;;;;8.95;5.53;;;;;;;;;;4933332;29;20427;-81
2023/03/13 04:06:20;;;;;;;9.73;5.95;;;;;;;;;;4913715;29;20433;-81
2023/03/13 04:08:46;;;;;;;9.57;5.78;;;;;;;;;;4889852;29;20484;-82
2023/03/13 04:11:12;;;;;;;12.00;6.47;;;;;;;;;;4909391;29;20436;-82
2023/03/13 04:13:41;;;;;;;10.73;6.33;;;;;;;;;;4933267;29;20502;-82
2023/03/13 04:16:08;;;;;;;12.88;6.90;;;;;;;;;;4916118;29;20419;-82
2023/03/13 04:18:35;;;;;;;10.18;6.53;;;;;;;;;;4933905;29;20419;-83
2023/03/13 04:21:07;;;;;;;12.13;7.25;;;;;;;;;;4912595;29;20437;-82
2023/03/13 04:23:34;;;;;;;12.70;7.60;;;;;;;;;;4913516;29;20433;-83
2023/03/13 04:26:00;;;;;;;13.32;7.75;;;;;;;;;;4921152;29;20833;-82
2023/03/13 04:28:26;;;;;;;14.77;8.75;;;;;;;;;;4932989;29;20415;-83
2023/03/13 04:30:56;;;;;;;15.50;9.33;;;;;;;;;;4912688;29;20436;-82
2023/03/13 04:33:22;;;;;;;30.73;11.50;;;;;;;;;;4906359;29;20428;-83
2023/03/13 04:35:48;;;;;;;15.63;8.98;;;;;;;;;;4913727;29;20433;-83
2023/03/13 04:38:14;;;;;;;16.08;9.70;;;;;;;;;;4916897;29;20455;-84
2023/03/13 04:40:42;;;;;;;15.73;9.65;;;;;;;;;;4930047;29;20437;-84
2023/03/13 04:43:08;;;;;;;22.27;10.60;;;;;;;;;;4913891;29;20449;-83
2023/03/13 04:45:34;;;;;;;17.80;11.07;;;;;;;;;;4917517;29;20431;-84
2023/03/13 04:48:00;;;;;;;18.73;10.50;;;;;;;;;;4915727;29;20595;-84
2023/03/13 04:50:26;;;;;;;17.58;10.65;;;;;;;;;;4931578;29;20436;-83
2023/03/13 04:52:52;;;;;;;16.27;10.20;;;;;;;;;;4893681;29;20429;-83
2023/03/13 04:55:18;;;;;;;15.20;10.13;;;;;;;;;;4901594;29;20764;-82
2023/03/13 04:57:44;;;;;;;19.30;10.38;;;;;;;;;;4912436;29;20429;-83
2023/03/13 05:00:11;;;;;;;18.20;10.70;;;;;;;;;;4899475;29;20435;-82
2023/03/13 05:02:37;;;;;;;15.57;10.50;;;;;;;;;;4913987;29;20800;-82
2023/03/13 05:05:03;;;;;;;17.77;10.52;;;;;;;;;;4915921;29;20878;-82
2023/03/13 05:07:29;;;;;;;18.08;11.57;;;;;;;;;;4915317;29;20423;-82
2023/03/13 05:09:55;;;;;;;17.58;10.93;;;;;;;;;;4930936;29;20431;-82
2023/03/13 05:12:21;;;;;;;18.95;9.90;;;;;;;;;;4915797;29;20422;-82
2023/03/13 05:14:49;;;;;;;17.95;11.00;;;;;;;;;;4916188;29;20423;-82
2023/03/13 05:17:16;;;;;;;17.65;9.90;;;;;;;;;;4886218;29;20441;-82
2023/03/13 05:19:42;;;;;;;15.27;9.07;;;;;;;;;;4917113;29;20407;-82
2023/03/13 05:22:08;;;;;;;15.90;8.73;;;;;;;;;;4930026;29;20431;-81
2023/03/13 05:24:35;;;;;;;17.08;8.60;;;;;;;;;;4919950;29;20897;-82
2023/03/13 05:27:01;;;;;;;17.37;8.47;;;;;;;;;;4934118;29;20432;-82
2023/03/13 05:29:27;;;;;;;15.75;7.93;;;;;;;;;;4934246;29;20431;-82
2023/03/13 05:31:53;;;;;;;15.03;7.90;;;;;;;;;;4925921;29;20435;-82
2023/03/13 05:34:19;;;;;;;13.45;7.20;;;;;;;;;;4935137;29;20423;-82
2023/03/13 05:36:45;;;;;;;13.88;8.00;;;;;;;;;;4934220;29;20478;-82
2023/03/13 05:39:11;;;;;;;12.45;7.18;;;;;;;;;;4919850;29;20412;-80
2023/03/13 05:41:37;;;;;;;14.82;7.20;;;;;;;;;;4908176;29;20433;-80
2023/03/13 05:44:04;;;;;;;15.68;6.40;;;;;;;;;;4931480;29;20522;-80
2023/03/13 05:46:30;;;;;;;15.35;6.72;;;;;;;;;;4935125;29;20936;-80
2023/03/13 05:48:56;;;;;;;13.88;6.30;;;;;;;;;;4903320;29;20437;-80
2023/03/13 05:51:25;;;;;;;12.82;6.30;;;;;;;;;;4917062;29;20436;-81
2023/03/13 05:53:51;;;;;;;13.68;6.05;;;;;;;;;;4935291;29;20547;-80
2023/03/13 05:56:17;;;;;;;12.43;5.90;;;;;;;;;;4905006;29;20443;-80
2023/03/13 05:58:43;;;;;;;15.68;6.70;;;;;;;;;;4933052;29;20431;-80
2023/03/13 06:01:10;;;;;;;14.07;6.88;;;;;;;;;;4931982;29;20431;-80
2023/03/13 06:03:36;;;;;;;14.25;6.68;;;;;;;;;;4928388;29;20660;-80
2023/03/13 06:06:02;;;;;;;19.80;7.47;;;;;;;;;;4917748;29;20442;-80
2023/03/13 06:08:29;;;;;;;15.00;7.07;;;;;;;;;;4917371;29;20990;-81
2023/03/13 06:11:05;;;;;;;16.95;6.97;;;;;;;;;;4920366;29;20503;-81
2023/03/13 06:13:31;;;;;;;15.10;7.50;;;;;;;;;;4914976;29;20419;-81
2023/03/13 06:15:57;;;;;;;14.20;7.28;;;;;;;;;;4919273;29;20464;-82
2023/03/13 06:18:24;;;;;;;14.13;7.43;;;;;;;;;;4933251;29;20431;-82
2023/03/13 06:20:55;;;;;;;18.88;8.32;;;;;;;;;;4918818;29;20444;-82
2023/03/13 06:23:21;;;;;;;14.68;7.57;;;;;;;;;;4923015;29;20471;-82
2023/03/13 06:25:50;;;;;;;16.55;8.00;;;;;;;;;;4920061;29;20415;-82
2023/03/13 06:28:16;;;;;;;15.48;7.63;;;;;;;;;;4918332;29;20963;-82
2023/03/13 06:30:45;;;;;;;15.35;7.68;;;;;;;;;;4916078;29;20441;-82
2023/03/13 06:33:14;;;;;;;12.50;7.22;;;;;;;;;;4917702;29;20443;-83
2023/03/13 06:35:41;;;;;;;13.90;7.22;;;;;;;;;;4936008;29;20415;-81
2023/03/13 06:38:08;;;;;;;18.48;7.68;;;;;;;;;;4934991;29;21195;-81
2023/03/13 06:40:34;;;;;;;16.52;7.90;;;;;;;;;;4908555;29;20499;-81
2023/03/13 06:43:03;;;;;;;18.30;8.00;;;;;;;;;;4912366;29;20443;-82
2023/03/13 06:45:35;;;;;;;14.77;7.03;;;;;;;;;;4915986;29;20422;-83
2023/03/13 06:48:01;;;;;;;14.23;6.93;;;;;;;;;;4919040;29;20475;-84
2023/03/13 06:50:27;;;;;;;17.85;7.57;;;;;;;;;;4919267;29;20792;-84
2023/03/13 06:53:05;;;;;;;15.25;7.18;;;;;;;;;;4900783;29;20418;-86
2023/03/13 06:55:39;;;;;;;18.30;7.63;;;;;;;;;;4910874;29;20927;-85
2023/03/13 06:58:18;;;;;;;16.30;6.38;;;;;;;;;;4905989;29;20834;-84
2023/03/13 07:00:45;;;;;;;20.42;7.53;;;;;;;;;;4949934;29;20447;-80
2023/03/13 07:03:21;;;;;;;19.73;6.90;;;;;;;;;;4917985;29;20444;-81
2023/03/13 07:05:57;;;;;;;18.08;6.75;;;;;;;;;;4932111;29;20518;-81
2023/03/13 07:08:27;;;;;;;14.57;6.18;;;;;;;;;;4913404;29;20433;-81
2023/03/13 07:11:22;;;;;;;13.60;6.77;;;;;;;;;;4932132;29;20439;-81
2023/03/13 07:13:55;;;;;;;16.33;6.10;;;;;;;;;;4927436;29;20471;-81
2023/03/13 07:16:27;;;;;;;13.88;5.70;;;;;;;;;;4933203;29;20509;-81
2023/03/13 07:18:56;;;;;;;13.63;5.95;;;;;;;;;;4917454;29;20969;-81
2023/03/13 07:21:33;;;;;;;14.60;5.80;;;;;;;;;;4948536;28;20433;-82
2023/03/13 07:24:17;;;;;;;15.60;5.95;;;;;;;;;;4930569;29;21780;-82
2023/03/13 07:27:01;;;;;;;17.02;6.25;;;;;;;;;;4943477;29;20451;-82
2023/03/13 07:29:34;;;;;;;15.70;5.32;;;;;;;;;;4913809;29;20430;-84
2023/03/13 07:32:00;;;;;;;15.70;6.35;;;;;;;;;;4934278;29;20818;-84
2023/03/13 07:34:29;;;;;;;18.02;5.97;;;;;;;;;;4915797;29;20468;-84
2023/03/13 07:36:55;;;;;;;16.10;5.90;;;;;;;;;;4912936;29;20542;-84
2023/03/13 07:39:21;;;;;;;13.23;5.95;;;;;;;;;;4935154;29;20426;-83
2023/03/13 07:41:51;;;;;;;15.32;5.35;;;;;;;;;;4916246;29;20453;-83
2023/03/13 07:44:23;;;;;;;15.10;5.60;;;;;;;;;;4915397;29;20464;-84
2023/03/13 07:46:52;;;;;;;19.58;5.70;;;;;;;;;;4921922;29;20455;-84
2023/03/13 07:49:18;;;;;;;15.53;5.80;;;;;;;;;;4918816;29;20518;-85
2023/03/13 07:51:46;;;;;;;12.15;5.40;;;;;;;;;;4918146;29;20447;-84
2023/03/13 07:54:13;;;;;;;11.95;5.40;;;;;;;;;;4900661;29;20436;-86
2023/03/13 07:56:39;;;;;;;13.93;5.45;;;;;;;;;;4927042;29;20413;-83
2023/03/13 07:59:05;;;;;;;14.00;5.57;;;;;;;;;;4907891;29;20780;-83
2023/03/13 08:01:31;;;;;;;13.02;5.05;;;;;;;;;;4931701;29;20416;-79
2023/03/13 08:04:01;;;;;;;10.48;4.75;;;;;;;;;;4932250;29;20431;-82
2023/03/13 08:06:30;;;;;;;11.85;4.68;;;11.50;99.90;;;;;;4932258;29;20459;-82
2023/03/13 08:08:57;;;;;;;9.98;4.30;;;;;;;;;;4914576;29;20439;-82
2023/03/13 08:11:24;;;;;;;9.23;4.22;;;;;;;;;;4915735;29;20789;-81
2023/03/13 08:13:53;;;;;;;13.35;4.38;;;;;;;;;;4917050;29;20950;-82
2023/03/13 08:16:26;;;;;;;10.95;3.80;;;;;;;;;;4909529;29;20433;-81
2023/03/13 08:18:53;;;;;;;7.22;3.67;;;;;;;;;;4907666;29;20459;-82
2023/03/13 08:21:22;;;;;;;8.93;4.05;;;;;;;;;;4906485;29;20513;-82
2023/03/13 08:23:48;;;;;;;8.82;3.60;;;;;;;;;;4914851;29;20507;-81
2023/03/13 08:26:19;;;;;;;9.75;3.75;;;;;;;;;;4946871;29;20428;-82
2023/03/13 08:28:46;;;;;;;7.57;3.65;;;;;;;;;;4912397;29;20515;-81
2023/03/13 08:31:12;;;;;;;7.78;3.25;;;;;;;;;;4926619;29;20436;-82
2023/03/13 08:33:39;;;;;;;8.00;3.22;;;;;;;;;;4911755;29;20435;-81
2023/03/13 08:36:16;;;;;;;8.35;2.78;;;;;;;;;;4902543;29;20431;-82
2023/03/13 08:38:43;;;;;;;9.70;2.70;;;;;;;;;;4913570;29;20442;-82
2023/03/13 08:41:09;;;;;;;8.48;2.80;;;;;;;;;;4929074;29;20439;-81
2023/03/13 08:43:35;;;;;;;6.97;2.70;;;;;;;;;;4898558;29;20435;-81
2023/03/13 08:46:01;;;;;;;7.05;2.50;;;;;;;;;;4916236;29;20431;-81
2023/03/13 08:48:28;;;;;;;7.47;2.72;;;;;;;;;;4912431;29;20435;-81
2023/03/13 08:51:01;;;;;;;6.95;2.10;;;;;;;;;;4911737;29;20439;-81
2023/03/13 08:53:27;;;;;;;7.07;2.30;;;;;;;;;;4913781;29;20452;-81
2023/03/13 08:55:54;;;;;;;6.30;2.20;;;;;;;;;;4919244;29;20427;-81
2023/03/13 08:58:20;;;;;;;5.78;1.83;;;;;;;;;;4925711;29;20443;-80
2023/03/13 09:00:46;;;;;;;5.78;2.38;;;;;;;;;;4924403;29;20510;-81
2023/03/13 09:03:12;;;;;;;6.35;2.20;;;;;;;;;;4910850;29;20431;-80
2023/03/13 09:05:38;;;;;;;6.47;2.05;;;;;;;;;;4927460;29;20439;-80
2023/03/13 09:08:04;;;;;;;6.30;2.10;;;;;;;;;;4908386;29;20440;-81
2023/03/13 09:10:34;;;;;;;7.47;2.30;;;;;;;;;;4933572;29;20920;-81
2023/03/13 09:13:01;;;;;;;8.27;2.63;;;;;;;;;;4913993;29;20432;-81
2023/03/13 09:15:27;;;;;;;8.73;2.53;;;;;;;;;;4917746;29;20433;-81
2023/03/13 09:17:53;;;;;;;10.77;2.80;;;;;;;;;;4908742;29;20939;-80
2023/03/13 09:20:19;;;;;;;11.05;3.00;;;;;;;;;;4926775;29;20436;-80
2023/03/13 09:22:46;;;;;;;10.88;3.20;;;;;;;;;;4917963;29;20443;-79
2023/03/13 09:25:13;;;;;;;10.07;3.15;;;;;;;;;;4915805;29;20420;-80
2023/03/13 09:27:39;;;;;;;13.27;3.40;;;;;;;;;;4915149;29;20985;-79
2023/03/13 09:30:05;;;;;;;13.13;3.77;;;;;;;;;;4894591;29;20514;-79
2023/03/13 09:32:32;;;;;;;11.33;3.17;;;;;;;;;;4898785;29;20427;-80
2023/03/13 09:34:58;;;;;;;12.02;3.45;;;;;;;;;;4911351;29;20436;-81
2023/03/13 09:37:24;;;;;;;10.80;3.25;;;;;;;;;;4929846;29;20942;-80
2023/03/13 09:39:50;;;;;;;10.50;3.15;;;;;;;;;;4924731;29;20507;-81
2023/03/13 09:42:37;;;;;;;17.23;3.67;;;;;;;;;;4912903;29;20446;-80
2023/03/13 09:45:12;;;;;;;13.53;3.10;;;12.00;99.90;;;;;;4906376;29;20465;-83
2023/03/13 09:47:49;;;;;;;12.93;3.10;;;12.40;99.90;;;;;;4921645;29;20436;-81
2023/03/13 09:50:24;;;;;;;9.85;3.20;;;;;;;;;;4915259;29;20462;-81
2023/03/13 09:52:53;;;;;;;12.25;3.72;;;;;;;;;;4913886;29;22084;-81
2023/03/13 09:55:20;;;;;;;9.87;3.10;;;;;;;;;;4926514;29;20511;-80
2023/03/13 09:57:57;;;;;;;11.27;2.88;;;;;;;;;;4919984;29;20486;-80
2023/03/13 10:00:33;;;;;;;11.82;3.22;;;;;;;;;;4926656;29;20426;-81
2023/03/13 10:03:02;;;;;;;15.30;3.50;;;;;;;;;;4910917;29;20778;-81
2023/03/13 10:05:30;;;;;;;12.35;3.22;;;;;;;;;;4925321;29;20436;-81
2023/03/13 10:08:00;;;;;;;14.43;3.80;;;;;;;;;;4925055;29;20434;-81
2023/03/13 10:10:44;;;;;;;14.25;3.65;;;;;;;;;;4925413;29;20449;-81
2023/03/13 10:13:14;;;;;;;13.05;3.15;;;;;;;;;;4930721;29;20832;-80
2023/03/13 10:15:56;;;;;;;11.27;3.15;;;13.90;99.90;;;;;;4912547;29;20435;-81
2023/03/13 10:18:23;;;;;;;12.80;2.90;;;14.20;99.90;;;;;;4929525;29;20419;-81
2023/03/13 10:20:55;;;;;;;12.80;3.42;;;14.20;99.90;;;;;;4915152;29;20432;-81
2023/03/13 10:23:40;;;;;;;13.90;3.53;;;;;;;;;;4925319;29;20466;-82
2023/03/13 10:26:11;;;;;;;15.13;3.58;;;;;;;;;;4924750;29;20428;-81
2023/03/13 10:28:37;;;;;;;14.35;3.53;;;;;;;;;;4926605;29;20960;-82
2023/03/13 10:31:13;;;;;;;15.60;3.53;;;14.30;99.90;;;;;;4864065;29;1828467;-82
2023/03/13 10:33:39;;;;;;;16.43;3.73;;;;;;;;;;4923405;29;20433;-82
2023/03/13 10:36:10;;;;;;;17.48;3.85;;;;;;;;;;4903630;29;20447;-81
2023/03/13 10:38:53;;;;;;;18.98;3.97;;;14.40;99.90;;;;;;4916459;29;20978;-82
2023/03/13 10:41:24;;;;;;;17.20;3.50;;;;;;;;;;4917243;29;20496;-82
2023/03/13 10:43:52;;;;;;;16.35;4.13;;;;;;;;;;4929300;29;20960;-81
2023/03/13 10:46:28;;;;;;;15.23;4.00;;;;;;;;;;4932940;29;20427;-82
2023/03/13 10:48:55;;;;;;;15.88;3.80;;;;;;;;;;4913281;29;20463;-82
2023/03/13 10:51:23;;;;;;;16.88;3.83;;;14.40;99.90;;;;;;4916340;29;20443;-81
2023/03/13 10:53:52;;;;;;;13.52;3.58;;;;;;;;;;4929326;29;20488;-81
2023/03/13 10:56:29;;;;;;;14.73;4.05;;;;;;;;;;4915237;29;20485;-81
2023/03/13 10:58:56;;;;;;;17.60;3.65;;;;;;;;;;4911889;29;20427;-82
2023/03/13 11:01:32;;;;;;;15.68;4.15;;;;;;;;;;4931450;29;20463;-81
2023/03/13 11:04:01;;;;;;;11.18;2.97;;;;;;;;;;4944787;29;20435;-82
2023/03/13 11:06:29;;;;;;;12.35;3.85;;;;;;;;;;4919678;29;20479;-80
2023/03/13 11:09:05;;;;;;;15.68;3.38;;;;;;;;;;4923195;29;20496;-81
2023/03/13 11:11:31;;;;;;;12.63;3.40;;;;;;;;;;4928976;29;20464;-82
2023/03/13 11:14:14;;;;;;;15.10;3.20;;;14.60;99.90;;;;;;4932432;29;20721;-81
2023/03/13 11:16:46;;;;;;;11.85;3.10;;;;;;;;;;4929543;29;20432;-82
2023/03/13 11:19:12;;;;;;;13.00;3.47;;;;;;;;;;4918945;29;20431;-82
2023/03/13 11:21:41;;;;;;;11.40;2.90;;;;;;;;;;4910862;29;20431;-82
2023/03/13 11:24:12;;;;;;;13.10;3.17;;;;;;;;;;4929604;29;20437;-82
2023/03/13 11:26:45;;;;;;;11.55;3.13;;;14.70;99.90;;;;;;4929685;29;20824;-83
2023/03/13 11:29:14;;;;;;;10.13;3.00;;;;;;;;;;4928034;29;20477;-83
2023/03/13 11:31:42;;;;;;;11.13;2.75;;;;;;;;;;4916881;29;20467;-83
2023/03/13 11:34:22;;;;;;;9.10;2.92;;;14.50;99.90;;;;;;4914267;29;20548;-83
2023/03/13 11:37:01;;;;;;;12.50;3.20;;;;;;;;;;4931903;29;20431;-84
2023/03/13 11:39:47;;;;;;;12.18;3.00;;;;;;;;;;4908719;29;20560;-83
2023/03/13 11:42:46;;;;;;;8.68;2.60;;;15.10;99.90;;;;;;4919629;29;20446;-83
2023/03/13 11:45:21;;;;;;;7.22;2.42;;;;;;;;;;4918763;29;20508;-83
2023/03/13 11:48:15;;;;;;;7.45;2.33;;;15.30;99.90;;;;;;4924830;29;20835;-84
2023/03/13 11:50:51;;;;;;;8.30;2.58;;;;;;;;;;4927789;29;20445;-83
2023/03/13 11:53:43;;;;;;;9.70;2.67;;;;;;;;;;4923427;29;20456;-84
2023/03/13 11:56:09;;;;;;;10.38;2.55;;;;;;;;;;4922053;29;20443;-83
2023/03/13 11:58:47;;;;;;;9.65;2.63;;;;;;;;;;4911214;29;20535;-83
2023/03/13 12:01:17;;;;;;;11.80;2.90;;;;;;;;;;4916886;29;20435;-83
2023/03/13 12:03:59;;;;;;;9.93;2.95;;;;;;;;;;4913956;29;20766;-83
2023/03/13 12:06:41;;;;;;;16.83;3.22;;;;;;;;;;4911141;29;20961;-83
2023/03/13 12:09:07;;;;;;;12.02;2.88;;;;;;;;;;4920029;29;20424;-83
2023/03/13 12:11:42;;;;;;;11.90;3.08;;;;;;;;;;4912060;29;21118;-84
2023/03/13 12:14:15;;;;;;;15.95;3.15;;;;;;;;;;4928880;29;20446;-84
2023/03/13 12:16:44;;;;;;;10.40;3.28;;;;;;;;;;4919914;29;20452;-84
2023/03/13 12:19:15;;;;;;;13.05;3.53;;;15.10;99.90;;;;;;4923332;29;20440;-85
2023/03/13 12:21:47;;;;;;;14.20;3.45;;;;;;;;;;4922060;29;20435;-84
2023/03/13 12:24:25;;;;;;;15.40;3.70;;;;;;;;;;4913603;29;20440;-85
2023/03/13 12:27:02;;;;;;;12.52;3.58;;;15.60;99.90;;;;;;4912090;29;20427;-84
2023/03/13 12:29:35;;;;;;;15.55;3.88;;;;;;;;;;4907545;29;20431;-85
2023/03/13 12:32:09;;;;;;;13.88;3.95;;;;;;;;;;4914272;28;20431;-84
2023/03/13 12:34:54;;;;;;;12.82;4.13;;;;;;;;;;4930067;29;21144;-84
2023/03/13 12:37:23;;;;;;;15.68;3.80;;;;;;;;;;4911182;29;20429;-84
2023/03/13 12:39:56;;;;;;;18.23;3.57;;;;;;;;;;4920109;29;20526;-82
2023/03/13 12:42:22;;;;;;;15.65;4.15;;;;;;;;;;4935414;29;20427;-85
2023/03/13 12:44:48;;;;;;;15.68;3.70;;;;;;;;;;4937620;29;20757;-86
2023/03/13 12:47:23;;;;;;;13.73;4.13;;;;;;;;;;4922697;29;20429;-84
2023/03/13 12:49:59;;;;;;;18.50;4.47;;;;;;;;;;4918873;29;20459;-85
2023/03/13 12:52:44;;;;;;;14.48;3.97;;;;;;;;;;4905328;29;20487;-85
2023/03/13 12:55:25;;;;;;;13.50;3.83;;;;;;;;;;4929602;29;20431;-87
2023/03/13 12:58:09;;;;;;;17.00;4.00;;;;;;;;;;4906704;29;20423;-87
2023/03/13 13:00:37;;;;;;;15.03;4.10;;;;;;;;;;4930242;29;20433;-87
2023/03/13 13:03:23;;;;;;;14.87;3.90;;;;;;;;;;4916905;29;20442;-86
2023/03/13 13:06:09;;;;;;;14.68;3.80;;;;;;;;;;4920129;29;20535;-87
2023/03/13 13:08:40;;;;;;;16.88;4.10;;;;;;;;;;4921509;29;20467;-87
2023/03/13 13:11:44;;;;;;;16.42;4.20;;;15.60;99.90;;;;;;4918134;29;20433;-87
2023/03/13 13:14:19;;;;;;;16.33;4.18;;;;;;;;;;4933137;29;20424;-88
2023/03/13 13:17:11;;;;;;;15.65;4.00;;;;;;;;;;4920052;29;20479;-87
2023/03/13 13:19:42;;;;;;;17.13;4.50;;;;;;;;;;4916780;29;20423;-85
2023/03/13 13:22:35;;;;;;;16.23;4.27;;;;;;;;;;4927549;29;20443;-87
2023/03/13 13:25:07;;;;;;;19.67;4.47;;;;;;;;;;4904477;29;20484;-88
2023/03/13 13:27:33;;;;;;;18.02;4.70;;;;;;;;;;4907483;29;20467;-85
2023/03/13 13:30:01;;;;;;;19.20;4.67;;;;;;;;;;4918543;29;21013;-88
2023/03/13 13:32:38;;;;;;;16.30;4.80;;;;;;;;;;4916720;29;20489;-89
2023/03/13 13:35:26;;;;;;;19.67;4.70;;;;;;;;;;4899962;29;20504;-88
2023/03/13 13:41:42;;;;;;;21.98;4.53;;;;;;;;;;4772593;30;20469;-88
2023/03/13 13:44:22;;;;;;;20.42;4.22;;;;;;;;;;4755821;30;20527;-88
2023/03/13 13:46:51;;;;;;;19.45;4.95;;;;;;;;;;4804199;29;21025;-88
2023/03/13 13:49:21;;;;;;;21.07;5.03;;;;;;;;;;4818191;29;21048;-89
2023/03/13 13:52:05;;;;;;;17.67;4.20;;;;;;;;;;4832424;29;20594;-89
2023/03/13 13:55:00;;;;;;;;;;;;;;;;;;;;;
2023/03/13 13:57:53;;;;;;;;;;;;;;;;;;;;;
2023/03/13 14:01:10;;;;;;;21.88;4.88;;;;;;;;;;4829436;29;20856;-86
2023/03/13 14:03:45;;;;;;;21.60;4.82;;;;;;;;;;4830582;29;20921;-87
2023/03/13 14:06:39;;;;;;;21.45;5.10;;;;;;;;;;4833436;29;20820;-87
2023/03/13 14:09:53;;;;;;;19.48;4.90;;;14.80;99.90;;;;;;4862014;29;21038;-88
2023/03/13 14:13:05;;;;;;;18.10;4.57;;;14.80;99.90;;;;;;4886691;29;20457;-88
2023/03/13 14:15:44;;;;;;;19.30;4.90;;;;;;;;;;4933066;29;20924;-88
2023/03/13 14:18:42;;;;;;;18.38;4.65;;;;;;;;;;4949736;29;20524;-87
2023/03/13 14:21:19;;;;;;;17.70;4.65;;;;;;;;;;4916670;29;20435;-88
2023/03/13 14:30:46;;;;;;;19.38;4.85;;;;;;;;;;4925417;29;20510;-88
2023/03/13 14:33:24;;;;;;;18.20;4.75;;;;;;;;;;4887931;29;20508;-87
2023/03/13 14:36:06;;;;;;;28.55;5.20;;;;;;;;;;4936328;29;20438;-86
2023/03/13 14:38:32;;;;;;;20.88;4.72;;;;;;;;;;4933858;29;20443;-89
2023/03/13 14:40:58;;;;;;;21.40;4.90;;;;;;;;;;4931806;29;20462;-89
2023/03/13 14:43:40;;;;;;;18.92;4.53;;;;;;;;;;4919510;29;20435;-88
2023/03/13 14:46:25;;;;;;;22.38;5.40;;;;;;;;;;4936367;29;20757;-89
2023/03/13 14:48:55;;;;;;;20.17;5.32;;;;;;;;;;4918859;29;20480;-88
2023/03/13 14:51:23;;;;;;;20.40;4.93;;;;;;;;;;4918882;29;20429;-88
2023/03/13 14:54:01;;;;;;;23.70;5.43;;;;;;;;;;4919950;29;20446;-89
2023/03/13 14:56:35;;;;;;;22.98;4.90;;;;;;;;;;4919301;29;20528;-89
2023/03/13 14:59:16;;;;;;;23.77;5.00;;;;;;;;;;4920461;29;20462;-88
2023/03/13 15:01:42;;;;;;;22.88;5.93;;;;;;;;;;4933539;29;20431;-89
2023/03/13 15:04:08;;;;;;;29.77;5.50;;;;;;;;;;4919197;29;20524;-89
2023/03/13 15:06:34;;;;;;;20.98;4.70;;;;;;;;;;4920011;29;20434;-88